sensor_id;sensor_type;location;lat;lon;timestamp;P1;durP1;ratioP1;P2;durP2;ratioP2
37777;SDS011;23615;51.506;7.678;2023-06-14T00:00:12;2.40;;;2.20;;
37777;SDS011;23615;51.506;7.678;2023-06-14T00:02:38;2.40;;;2.10;;
37777;SDS011;23615;51.506;7.678;2023-06-14T00:05:07;3.20;;;2.10;;
37777;SDS011;23615;51.506;7.678;2023-06-14T00:07:36;2.38;;;2.17;;
37777;SDS011;23615;51.506;7.678;2023-06-14T00:10:07;3.53;;;2.00;;
37777;SDS011;23615;51.506;7.678;2023-06-14T00:12:33;1.87;;;1.77;;
37777;SDS011;23615;51.506;7.678;2023-06-14T00:14:59;3.53;;;2.47;;
37777;SDS011;23615;51.506;7.678;2023-06-14T00:17:26;2.47;;;2.28;;
37777;SDS011;23615;51.506;7.678;2023-06-14T00:19:55;3.88;;;2.45;;
37777;SDS011;23615;51.506;7.678;2023-06-14T00:22:21;2.30;;;2.08;;
37777;SDS011;23615;51.506;7.678;2023-06-14T00:24:49;2.35;;;2.13;;
37777;SDS011;23615;51.506;7.678;2023-06-14T00:27:15;2.03;;;1.93;;
37777;SDS011;23615;51.506;7.678;2023-06-14T00:29:40;1.80;;;1.70;;
37777;SDS011;23615;51.506;7.678;2023-06-14T00:32:06;2.00;;;1.90;;
37777;SDS011;23615;51.506;7.678;2023-06-14T00:34:31;2.20;;;2.00;;
37777;SDS011;23615;51.506;7.678;2023-06-14T00:36:56;1.88;;;1.77;;
37777;SDS011;23615;51.506;7.678;2023-06-14T00:39:22;1.90;;;1.70;;
37777;SDS011;23615;51.506;7.678;2023-06-14T00:41:47;2.30;;;2.20;;
37777;SDS011;23615;51.506;7.678;2023-06-14T00:44:12;2.80;;;1.98;;
37777;SDS011;23615;51.506;7.678;2023-06-14T00:46:41;1.75;;;1.65;;
37777;SDS011;23615;51.506;7.678;2023-06-14T00:49:07;2.28;;;1.77;;
37777;SDS011;23615;51.506;7.678;2023-06-14T00:51:33;1.80;;;1.70;;
37777;SDS011;23615;51.506;7.678;2023-06-14T00:53:58;2.77;;;1.60;;
37777;SDS011;23615;51.506;7.678;2023-06-14T00:56:24;1.80;;;1.70;;
37777;SDS011;23615;51.506;7.678;2023-06-14T00:58:50;2.10;;;1.90;;
37777;SDS011;23615;51.506;7.678;2023-06-14T01:01:16;1.77;;;1.67;;
37777;SDS011;23615;51.506;7.678;2023-06-14T01:03:41;2.40;;;1.80;;
37777;SDS011;23615;51.506;7.678;2023-06-14T01:06:15;2.43;;;1.80;;
37777;SDS011;23615;51.506;7.678;2023-06-14T01:08:56;1.67;;;1.57;;
37777;SDS011;23615;51.506;7.678;2023-06-14T01:11:30;2.00;;;1.80;;
37777;SDS011;23615;51.506;7.678;2023-06-14T01:14:05;2.67;;;1.80;;
37777;SDS011;23615;51.506;7.678;2023-06-14T01:16:32;1.60;;;1.50;;
37777;SDS011;23615;51.506;7.678;2023-06-14T01:19:01;2.10;;;1.90;;
37777;SDS011;23615;51.506;7.678;2023-06-14T01:21:27;1.58;;;1.30;;
37777;SDS011;23615;51.506;7.678;2023-06-14T01:23:53;2.95;;;1.95;;
37777;SDS011;23615;51.506;7.678;2023-06-14T01:26:20;1.58;;;1.48;;
37777;SDS011;23615;51.506;7.678;2023-06-14T01:28:46;1.70;;;1.60;;
37777;SDS011;23615;51.506;7.678;2023-06-14T01:31:16;2.10;;;1.90;;
37777;SDS011;23615;51.506;7.678;2023-06-14T01:33:46;1.87;;;1.77;;
37777;SDS011;23615;51.506;7.678;2023-06-14T01:36:13;1.60;;;1.50;;
37777;SDS011;23615;51.506;7.678;2023-06-14T01:38:39;2.23;;;1.53;;
37777;SDS011;23615;51.506;7.678;2023-06-14T01:41:08;1.60;;;1.50;;
37777;SDS011;23615;51.506;7.678;2023-06-14T01:43:34;2.60;;;1.50;;
37777;SDS011;23615;51.506;7.678;2023-06-14T01:46:00;2.33;;;1.50;;
37777;SDS011;23615;51.506;7.678;2023-06-14T01:48:27;2.30;;;1.67;;
37777;SDS011;23615;51.506;7.678;2023-06-14T01:50:52;2.30;;;1.40;;
37777;SDS011;23615;51.506;7.678;2023-06-14T01:53:18;1.90;;;1.67;;
37777;SDS011;23615;51.506;7.678;2023-06-14T01:55:43;3.07;;;1.70;;
37777;SDS011;23615;51.506;7.678;2023-06-14T01:58:13;2.85;;;1.73;;
37777;SDS011;23615;51.506;7.678;2023-06-14T02:00:38;3.33;;;1.60;;
37777;SDS011;23615;51.506;7.678;2023-06-14T02:03:04;2.23;;;1.57;;
37777;SDS011;23615;51.506;7.678;2023-06-14T02:05:29;1.40;;;1.30;;
37777;SDS011;23615;51.506;7.678;2023-06-14T02:07:55;1.45;;;1.35;;
37777;SDS011;23615;51.506;7.678;2023-06-14T02:10:20;1.50;;;1.40;;
37777;SDS011;23615;51.506;7.678;2023-06-14T02:12:46;1.63;;;1.52;;
37777;SDS011;23615;51.506;7.678;2023-06-14T02:15:12;4.40;;;1.90;;
37777;SDS011;23615;51.506;7.678;2023-06-14T02:17:43;1.67;;;1.13;;
37777;SDS011;23615;51.506;7.678;2023-06-14T02:20:09;2.92;;;1.67;;
37777;SDS011;23615;51.506;7.678;2023-06-14T02:22:34;1.80;;;1.43;;
37777;SDS011;23615;51.506;7.678;2023-06-14T02:25:00;2.03;;;1.10;;
37777;SDS011;23615;51.506;7.678;2023-06-14T02:27:25;1.33;;;1.17;;
37777;SDS011;23615;51.506;7.678;2023-06-14T02:29:51;1.30;;;1.20;;
37777;SDS011;23615;51.506;7.678;2023-06-14T02:32:16;1.33;;;1.23;;
37777;SDS011;23615;51.506;7.678;2023-06-14T02:34:41;2.50;;;1.60;;
37777;SDS011;23615;51.506;7.678;2023-06-14T02:37:06;1.33;;;1.23;;
37777;SDS011;23615;51.506;7.678;2023-06-14T02:39:32;1.03;;;1.00;;
37777;SDS011;23615;51.506;7.678;2023-06-14T02:41:57;2.80;;;1.93;;
37777;SDS011;23615;51.506;7.678;2023-06-14T02:44:25;1.23;;;1.07;;
37777;SDS011;23615;51.506;7.678;2023-06-14T02:46:53;2.35;;;1.40;;
37777;SDS011;23615;51.506;7.678;2023-06-14T02:49:20;1.73;;;1.17;;
37777;SDS011;23615;51.506;7.678;2023-06-14T02:51:46;1.40;;;1.30;;
37777;SDS011;23615;51.506;7.678;2023-06-14T02:54:11;1.30;;;1.10;;
37777;SDS011;23615;51.506;7.678;2023-06-14T02:56:36;3.43;;;1.60;;
37777;SDS011;23615;51.506;7.678;2023-06-14T02:59:02;2.10;;;1.33;;
37777;SDS011;23615;51.506;7.678;2023-06-14T03:01:27;1.52;;;1.00;;
37777;SDS011;23615;51.506;7.678;2023-06-14T03:03:59;2.13;;;1.48;;
37777;SDS011;23615;51.506;7.678;2023-06-14T03:06:24;1.17;;;1.00;;
37777;SDS011;23615;51.506;7.678;2023-06-14T03:08:50;1.20;;;1.10;;
37777;SDS011;23615;51.506;7.678;2023-06-14T03:11:15;2.67;;;1.30;;
37777;SDS011;23615;51.506;7.678;2023-06-14T03:13:42;1.10;;;1.00;;
37777;SDS011;23615;51.506;7.678;2023-06-14T03:16:08;1.80;;;0.90;;
37777;SDS011;23615;51.506;7.678;2023-06-14T03:18:34;1.30;;;1.13;;
37777;SDS011;23615;51.506;7.678;2023-06-14T03:21:01;1.20;;;1.10;;
37777;SDS011;23615;51.506;7.678;2023-06-14T03:23:26;1.30;;;1.15;;
37777;SDS011;23615;51.506;7.678;2023-06-14T03:25:52;1.67;;;1.10;;
37777;SDS011;23615;51.506;7.678;2023-06-14T03:28:17;2.30;;;1.23;;
37777;SDS011;23615;51.506;7.678;2023-06-14T03:30:42;1.50;;;1.00;;
37777;SDS011;23615;51.506;7.678;2023-06-14T03:33:08;1.90;;;1.30;;
37777;SDS011;23615;51.506;7.678;2023-06-14T03:35:33;1.90;;;1.03;;
37777;SDS011;23615;51.506;7.678;2023-06-14T03:37:58;1.63;;;1.00;;
37777;SDS011;23615;51.506;7.678;2023-06-14T03:40:24;2.65;;;1.40;;
37777;SDS011;23615;51.506;7.678;2023-06-14T03:42:52;1.20;;;1.10;;
37777;SDS011;23615;51.506;7.678;2023-06-14T03:45:21;1.55;;;1.17;;
37777;SDS011;23615;51.506;7.678;2023-06-14T03:47:46;2.27;;;1.23;;
37777;SDS011;23615;51.506;7.678;2023-06-14T03:50:12;2.50;;;1.13;;
37777;SDS011;23615;51.506;7.678;2023-06-14T03:52:37;2.90;;;0.90;;
37777;SDS011;23615;51.506;7.678;2023-06-14T03:55:03;1.00;;;0.80;;
37777;SDS011;23615;51.506;7.678;2023-06-14T03:57:29;0.90;;;0.73;;
37777;SDS011;23615;51.506;7.678;2023-06-14T03:59:55;1.55;;;1.15;;
37777;SDS011;23615;51.506;7.678;2023-06-14T04:02:20;1.00;;;0.80;;
37777;SDS011;23615;51.506;7.678;2023-06-14T04:04:45;1.02;;;0.93;;
37777;SDS011;23615;51.506;7.678;2023-06-14T04:07:11;0.80;;;0.73;;
37777;SDS011;23615;51.506;7.678;2023-06-14T04:09:38;1.00;;;0.85;;
37777;SDS011;23615;51.506;7.678;2023-06-14T04:12:04;1.30;;;1.02;;
37777;SDS011;23615;51.506;7.678;2023-06-14T04:14:30;1.98;;;0.95;;
37777;SDS011;23615;51.506;7.678;2023-06-14T04:16:55;1.38;;;1.10;;
37777;SDS011;23615;51.506;7.678;2023-06-14T04:19:21;1.70;;;0.95;;
37777;SDS011;23615;51.506;7.678;2023-06-14T04:21:46;1.27;;;1.10;;
37777;SDS011;23615;51.506;7.678;2023-06-14T04:24:12;2.10;;;0.93;;
37777;SDS011;23615;51.506;7.678;2023-06-14T04:26:39;2.77;;;1.00;;
37777;SDS011;23615;51.506;7.678;2023-06-14T04:29:05;1.88;;;1.35;;
37777;SDS011;23615;51.506;7.678;2023-06-14T04:31:31;1.90;;;0.80;;
37777;SDS011;23615;51.506;7.678;2023-06-14T04:34:02;1.65;;;1.02;;
37777;SDS011;23615;51.506;7.678;2023-06-14T04:36:30;2.40;;;1.00;;
37777;SDS011;23615;51.506;7.678;2023-06-14T04:38:59;1.60;;;0.70;;
37777;SDS011;23615;51.506;7.678;2023-06-14T04:41:25;0.80;;;0.80;;
37777;SDS011;23615;51.506;7.678;2023-06-14T04:43:55;1.15;;;0.98;;
37777;SDS011;23615;51.506;7.678;2023-06-14T04:46:22;1.00;;;0.90;;
37777;SDS011;23615;51.506;7.678;2023-06-14T04:48:47;2.03;;;1.27;;
37777;SDS011;23615;51.506;7.678;2023-06-14T04:51:12;1.73;;;1.03;;
37777;SDS011;23615;51.506;7.678;2023-06-14T04:53:38;2.13;;;1.00;;
37777;SDS011;23615;51.506;7.678;2023-06-14T04:56:03;1.37;;;0.90;;
37777;SDS011;23615;51.506;7.678;2023-06-14T04:58:29;1.15;;;0.90;;
37777;SDS011;23615;51.506;7.678;2023-06-14T05:00:55;1.55;;;1.08;;
37777;SDS011;23615;51.506;7.678;2023-06-14T05:03:27;1.08;;;1.02;;
37777;SDS011;23615;51.506;7.678;2023-06-14T05:05:55;1.80;;;0.93;;
37777;SDS011;23615;51.506;7.678;2023-06-14T05:08:21;2.37;;;1.20;;
37777;SDS011;23615;51.506;7.678;2023-06-14T05:10:49;1.35;;;1.10;;
37777;SDS011;23615;51.506;7.678;2023-06-14T05:13:15;1.15;;;0.82;;
37777;SDS011;23615;51.506;7.678;2023-06-14T05:15:41;1.38;;;0.85;;
37777;SDS011;23615;51.506;7.678;2023-06-14T05:18:06;1.40;;;0.97;;
37777;SDS011;23615;51.506;7.678;2023-06-14T05:20:34;0.60;;;0.60;;
37777;SDS011;23615;51.506;7.678;2023-06-14T05:23:01;1.92;;;0.93;;
37777;SDS011;23615;51.506;7.678;2023-06-14T05:25:27;1.90;;;1.20;;
37777;SDS011;23615;51.506;7.678;2023-06-14T05:27:53;1.40;;;0.82;;
37777;SDS011;23615;51.506;7.678;2023-06-14T05:30:18;0.85;;;0.70;;
37777;SDS011;23615;51.506;7.678;2023-06-14T05:32:43;0.83;;;0.80;;
37777;SDS011;23615;51.506;7.678;2023-06-14T05:35:09;1.80;;;0.90;;
37777;SDS011;23615;51.506;7.678;2023-06-14T05:37:35;0.75;;;0.60;;
37777;SDS011;23615;51.506;7.678;2023-06-14T05:40:01;2.65;;;1.08;;
37777;SDS011;23615;51.506;7.678;2023-06-14T05:42:26;2.33;;;1.37;;
37777;SDS011;23615;51.506;7.678;2023-06-14T05:44:51;1.53;;;1.30;;
37777;SDS011;23615;51.506;7.678;2023-06-14T05:47:17;1.27;;;1.00;;
37777;SDS011;23615;51.506;7.678;2023-06-14T05:49:42;2.40;;;0.90;;
37777;SDS011;23615;51.506;7.678;2023-06-14T05:52:07;2.27;;;0.97;;
37777;SDS011;23615;51.506;7.678;2023-06-14T05:54:33;1.75;;;1.30;;
37777;SDS011;23615;51.506;7.678;2023-06-14T05:56:58;1.80;;;1.10;;
37777;SDS011;23615;51.506;7.678;2023-06-14T05:59:27;4.85;;;1.30;;
37777;SDS011;23615;51.506;7.678;2023-06-14T06:01:52;1.35;;;0.90;;
37777;SDS011;23615;51.506;7.678;2023-06-14T06:04:18;1.27;;;0.80;;
37777;SDS011;23615;51.506;7.678;2023-06-14T06:06:43;1.73;;;1.10;;
37777;SDS011;23615;51.506;7.678;2023-06-14T06:09:10;1.45;;;1.20;;
37777;SDS011;23615;51.506;7.678;2023-06-14T06:11:35;1.80;;;0.93;;
37777;SDS011;23615;51.506;7.678;2023-06-14T06:14:00;1.70;;;1.17;;
37777;SDS011;23615;51.506;7.678;2023-06-14T06:16:26;1.17;;;0.87;;
37777;SDS011;23615;51.506;7.678;2023-06-14T06:18:51;2.20;;;1.10;;
37777;SDS011;23615;51.506;7.678;2023-06-14T06:21:17;2.00;;;0.95;;
37777;SDS011;23615;51.506;7.678;2023-06-14T06:23:42;2.83;;;1.20;;
37777;SDS011;23615;51.506;7.678;2023-06-14T06:26:07;2.53;;;0.90;;
37777;SDS011;23615;51.506;7.678;2023-06-14T06:28:33;1.40;;;0.90;;
37777;SDS011;23615;51.506;7.678;2023-06-14T06:30:58;1.83;;;1.10;;
37777;SDS011;23615;51.506;7.678;2023-06-14T06:33:23;3.20;;;1.13;;
37777;SDS011;23615;51.506;7.678;2023-06-14T06:35:48;3.40;;;1.30;;
37777;SDS011;23615;51.506;7.678;2023-06-14T06:38:14;1.03;;;0.80;;
37777;SDS011;23615;51.506;7.678;2023-06-14T06:40:39;2.10;;;1.30;;
37777;SDS011;23615;51.506;7.678;2023-06-14T06:43:05;2.10;;;1.20;;
37777;SDS011;23615;51.506;7.678;2023-06-14T06:45:30;3.30;;;0.87;;
37777;SDS011;23615;51.506;7.678;2023-06-14T06:47:55;3.77;;;1.50;;
37777;SDS011;23615;51.506;7.678;2023-06-14T06:50:21;3.30;;;1.30;;
37777;SDS011;23615;51.506;7.678;2023-06-14T06:52:48;1.77;;;1.13;;
37777;SDS011;23615;51.506;7.678;2023-06-14T06:55:13;1.17;;;0.90;;
37777;SDS011;23615;51.506;7.678;2023-06-14T06:57:51;2.27;;;1.03;;
37777;SDS011;23615;51.506;7.678;2023-06-14T07:00:20;1.17;;;1.00;;
37777;SDS011;23615;51.506;7.678;2023-06-14T07:02:46;0.95;;;0.82;;
37777;SDS011;23615;51.506;7.678;2023-06-14T07:05:12;1.30;;;1.20;;
37777;SDS011;23615;51.506;7.678;2023-06-14T07:07:37;2.00;;;1.30;;
37777;SDS011;23615;51.506;7.678;2023-06-14T07:10:03;2.40;;;0.93;;
37777;SDS011;23615;51.506;7.678;2023-06-14T07:15:29;1.35;;;0.85;;
37777;SDS011;23615;51.506;7.678;2023-06-14T07:17:54;1.23;;;1.10;;
37777;SDS011;23615;51.506;7.678;2023-06-14T07:20:24;1.98;;;1.20;;
37777;SDS011;23615;51.506;7.678;2023-06-14T07:22:50;4.90;;;1.13;;
37777;SDS011;23615;51.506;7.678;2023-06-14T07:32:00;2.27;;;0.93;;
37777;SDS011;23615;51.506;7.678;2023-06-14T07:34:25;1.70;;;0.70;;
37777;SDS011;23615;51.506;7.678;2023-06-14T07:36:52;1.60;;;0.70;;
37777;SDS011;23615;51.506;7.678;2023-06-14T07:39:19;1.92;;;0.85;;
37777;SDS011;23615;51.506;7.678;2023-06-14T07:41:44;1.80;;;0.60;;
37777;SDS011;23615;51.506;7.678;2023-06-14T07:44:10;1.60;;;0.50;;
37777;SDS011;23615;51.506;7.678;2023-06-14T07:46:35;0.67;;;0.50;;
37777;SDS011;23615;51.506;7.678;2023-06-14T07:49:00;1.00;;;0.40;;
37777;SDS011;23615;51.506;7.678;2023-06-14T07:51:26;0.77;;;0.40;;
37777;SDS011;23615;51.506;7.678;2023-06-14T07:53:51;2.03;;;0.50;;
37777;SDS011;23615;51.506;7.678;2023-06-14T07:56:16;2.40;;;0.50;;
37777;SDS011;23615;51.506;7.678;2023-06-14T07:58:42;1.02;;;0.35;;
37777;SDS011;23615;51.506;7.678;2023-06-14T08:01:08;1.07;;;0.23;;
37777;SDS011;23615;51.506;7.678;2023-06-14T08:03:34;0.40;;;0.30;;
37777;SDS011;23615;51.506;7.678;2023-06-14T08:05:59;0.50;;;0.23;;
37777;SDS011;23615;51.506;7.678;2023-06-14T08:08:25;0.50;;;0.22;;
37777;SDS011;23615;51.506;7.678;2023-06-14T08:10:51;0.53;;;0.30;;
37777;SDS011;23615;51.506;7.678;2023-06-14T08:13:16;0.90;;;0.20;;
37777;SDS011;23615;51.506;7.678;2023-06-14T08:15:41;0.22;;;0.22;;
37777;SDS011;23615;51.506;7.678;2023-06-14T08:18:07;1.10;;;0.20;;
37777;SDS011;23615;51.506;7.678;2023-06-14T08:20:32;1.30;;;0.30;;
37777;SDS011;23615;51.506;7.678;2023-06-14T08:22:59;1.08;;;0.38;;
37777;SDS011;23615;51.506;7.678;2023-06-14T08:25:25;1.30;;;0.30;;
37777;SDS011;23615;51.506;7.678;2023-06-14T08:27:50;0.20;;;0.20;;
37777;SDS011;23615;51.506;7.678;2023-06-14T08:30:16;1.13;;;0.40;;
37777;SDS011;23615;51.506;7.678;2023-06-14T08:32:42;0.30;;;0.30;;
37777;SDS011;23615;51.506;7.678;2023-06-14T08:35:10;0.52;;;0.30;;
37777;SDS011;23615;51.506;7.678;2023-06-14T08:37:40;0.82;;;0.30;;
37777;SDS011;23615;51.506;7.678;2023-06-14T08:42:47;0.93;;;0.30;;
37777;SDS011;23615;51.506;7.678;2023-06-14T08:45:15;0.30;;;0.20;;
37777;SDS011;23615;51.506;7.678;2023-06-14T08:47:40;1.17;;;0.30;;
37777;SDS011;23615;51.506;7.678;2023-06-14T08:50:06;0.90;;;0.40;;
37777;SDS011;23615;51.506;7.678;2023-06-14T08:52:33;0.32;;;0.20;;
37777;SDS011;23615;51.506;7.678;2023-06-14T08:55:05;1.13;;;0.37;;
37777;SDS011;23615;51.506;7.678;2023-06-14T08:57:34;1.03;;;0.30;;
37777;SDS011;23615;51.506;7.678;2023-06-14T09:00:02;0.52;;;0.35;;
37777;SDS011;23615;51.506;7.678;2023-06-14T09:02:36;0.32;;;0.30;;
37777;SDS011;23615;51.506;7.678;2023-06-14T09:05:02;1.50;;;0.40;;
37777;SDS011;23615;51.506;7.678;2023-06-14T09:07:28;1.43;;;0.27;;
37777;SDS011;23615;51.506;7.678;2023-06-14T09:12:35;1.10;;;0.40;;
37777;SDS011;23615;51.506;7.678;2023-06-14T09:15:01;0.95;;;0.35;;
37777;SDS011;23615;51.506;7.678;2023-06-14T09:17:31;1.23;;;0.40;;
37777;SDS011;23615;51.506;7.678;2023-06-14T09:19:58;2.90;;;0.30;;
37777;SDS011;23615;51.506;7.678;2023-06-14T09:22:23;0.47;;;0.30;;
37777;SDS011;23615;51.506;7.678;2023-06-14T09:24:49;0.40;;;0.40;;
37777;SDS011;23615;51.506;7.678;2023-06-14T09:27:15;0.50;;;0.23;;
37777;SDS011;23615;51.506;7.678;2023-06-14T09:29:40;2.25;;;0.30;;
37777;SDS011;23615;51.506;7.678;2023-06-14T09:32:06;0.87;;;0.20;;
37777;SDS011;23615;51.506;7.678;2023-06-14T09:34:32;0.50;;;0.30;;
37777;SDS011;23615;51.506;7.678;2023-06-14T09:36:59;0.30;;;0.20;;
37777;SDS011;23615;51.506;7.678;2023-06-14T09:39:25;2.40;;;0.33;;
37777;SDS011;23615;51.506;7.678;2023-06-14T09:41:50;0.90;;;0.30;;
37777;SDS011;23615;51.506;7.678;2023-06-14T09:44:15;1.33;;;0.20;;
37777;SDS011;23615;51.506;7.678;2023-06-14T09:46:43;0.90;;;0.20;;
37777;SDS011;23615;51.506;7.678;2023-06-14T09:49:09;0.60;;;0.28;;
37777;SDS011;23615;51.506;7.678;2023-06-14T09:51:34;1.10;;;0.20;;
37777;SDS011;23615;51.506;7.678;2023-06-14T09:54:07;3.03;;;0.28;;
37777;SDS011;23615;51.506;7.678;2023-06-14T09:56:37;0.50;;;0.20;;
37777;SDS011;23615;51.506;7.678;2023-06-14T09:59:05;0.77;;;0.20;;
37777;SDS011;23615;51.506;7.678;2023-06-14T10:01:32;2.13;;;0.22;;
37777;SDS011;23615;51.506;7.678;2023-06-14T10:04:03;0.30;;;0.10;;
37777;SDS011;23615;51.506;7.678;2023-06-14T10:06:30;0.10;;;0.10;;
37777;SDS011;23615;51.506;7.678;2023-06-14T10:08:56;0.68;;;0.30;;
37777;SDS011;23615;51.506;7.678;2023-06-14T10:11:25;0.40;;;0.27;;
37777;SDS011;23615;51.506;7.678;2023-06-14T10:13:57;0.40;;;0.28;;
37777;SDS011;23615;51.506;7.678;2023-06-14T10:16:28;1.27;;;0.30;;
37777;SDS011;23615;51.506;7.678;2023-06-14T10:21:37;0.60;;;0.30;;
37777;SDS011;23615;51.506;7.678;2023-06-14T10:24:07;1.33;;;0.33;;
37777;SDS011;23615;51.506;7.678;2023-06-14T10:26:35;0.20;;;0.20;;
37777;SDS011;23615;51.506;7.678;2023-06-14T10:29:15;1.17;;;0.40;;
37777;SDS011;23615;51.506;7.678;2023-06-14T10:31:42;0.90;;;0.30;;
37777;SDS011;23615;51.506;7.678;2023-06-14T10:34:08;1.33;;;0.32;;
37777;SDS011;23615;51.506;7.678;2023-06-14T10:36:34;1.10;;;0.30;;
37777;SDS011;23615;51.506;7.678;2023-06-14T10:39:01;1.95;;;0.40;;
37777;SDS011;23615;51.506;7.678;2023-06-14T10:41:31;1.50;;;0.38;;
37777;SDS011;23615;51.506;7.678;2023-06-14T10:46:37;0.93;;;0.30;;
37777;SDS011;23615;51.506;7.678;2023-06-14T10:49:02;0.85;;;0.50;;
37777;SDS011;23615;51.506;7.678;2023-06-14T10:51:29;0.82;;;0.30;;
37777;SDS011;23615;51.506;7.678;2023-06-14T10:53:55;1.17;;;0.40;;
37777;SDS011;23615;51.506;7.678;2023-06-14T10:56:26;0.50;;;0.40;;
37777;SDS011;23615;51.506;7.678;2023-06-14T10:58:53;1.35;;;0.50;;
37777;SDS011;23615;51.506;7.678;2023-06-14T11:01:23;0.70;;;0.50;;
37777;SDS011;23615;51.506;7.678;2023-06-14T11:04:00;1.27;;;0.40;;
37777;SDS011;23615;51.506;7.678;2023-06-14T11:06:39;1.23;;;0.60;;
37777;SDS011;23615;51.506;7.678;2023-06-14T11:12:09;0.55;;;0.30;;
37777;SDS011;23615;51.506;7.678;2023-06-14T11:14:36;1.45;;;0.40;;
37777;SDS011;23615;51.506;7.678;2023-06-14T11:17:03;1.23;;;0.50;;
37777;SDS011;23615;51.506;7.678;2023-06-14T11:19:29;0.40;;;0.40;;
37777;SDS011;23615;51.506;7.678;2023-06-14T11:21:54;0.23;;;0.23;;
37777;SDS011;23615;51.506;7.678;2023-06-14T11:24:19;1.23;;;0.47;;
37777;SDS011;23615;51.506;7.678;2023-06-14T11:26:46;0.70;;;0.50;;
37777;SDS011;23615;51.506;7.678;2023-06-14T11:29:14;1.90;;;0.68;;
37777;SDS011;23615;51.506;7.678;2023-06-14T11:31:43;0.60;;;0.40;;
37777;SDS011;23615;51.506;7.678;2023-06-14T11:34:10;1.63;;;0.50;;
37777;SDS011;23615;51.506;7.678;2023-06-14T11:36:37;1.92;;;0.50;;
37777;SDS011;23615;51.506;7.678;2023-06-14T11:39:04;1.00;;;0.50;;
37777;SDS011;23615;51.506;7.678;2023-06-14T11:41:32;0.70;;;0.50;;
37777;SDS011;23615;51.506;7.678;2023-06-14T11:44:00;0.85;;;0.50;;
37777;SDS011;23615;51.506;7.678;2023-06-14T11:46:27;1.17;;;0.33;;
37777;SDS011;23615;51.506;7.678;2023-06-14T11:48:52;0.40;;;0.40;;
37777;SDS011;23615;51.506;7.678;2023-06-14T11:51:18;1.80;;;0.60;;
37777;SDS011;23615;51.506;7.678;2023-06-14T11:53:44;1.35;;;0.50;;
37777;SDS011;23615;51.506;7.678;2023-06-14T11:56:10;2.35;;;0.57;;
37777;SDS011;23615;51.506;7.678;2023-06-14T11:58:36;1.60;;;0.40;;
37777;SDS011;23615;51.506;7.678;2023-06-14T12:01:02;0.35;;;0.35;;
37777;SDS011;23615;51.506;7.678;2023-06-14T12:03:28;0.75;;;0.40;;
37777;SDS011;23615;51.506;7.678;2023-06-14T12:06:06;1.10;;;0.40;;
37777;SDS011;23615;51.506;7.678;2023-06-14T12:11:37;0.40;;;0.30;;
37777;SDS011;23615;51.506;7.678;2023-06-14T12:14:05;0.40;;;0.40;;
37777;SDS011;23615;51.506;7.678;2023-06-14T12:16:31;0.40;;;0.40;;
37777;SDS011;23615;51.506;7.678;2023-06-14T12:19:00;0.75;;;0.40;;
37777;SDS011;23615;51.506;7.678;2023-06-14T12:21:27;1.42;;;0.50;;
37777;SDS011;23615;51.506;7.678;2023-06-14T12:23:53;0.57;;;0.40;;
37777;SDS011;23615;51.506;7.678;2023-06-14T12:26:19;0.50;;;0.50;;
37777;SDS011;23615;51.506;7.678;2023-06-14T12:28:46;1.20;;;0.60;;
37777;SDS011;23615;51.506;7.678;2023-06-14T12:31:13;1.30;;;0.57;;
37777;SDS011;23615;51.506;7.678;2023-06-14T12:33:43;0.77;;;0.40;;
37777;SDS011;23615;51.506;7.678;2023-06-14T12:36:10;0.80;;;0.55;;
37777;SDS011;23615;51.506;7.678;2023-06-14T12:38:36;0.97;;;0.50;;
37777;SDS011;23615;51.506;7.678;2023-06-14T12:41:02;1.20;;;0.60;;
37777;SDS011;23615;51.506;7.678;2023-06-14T12:43:27;0.70;;;0.70;;
37777;SDS011;23615;51.506;7.678;2023-06-14T12:45:53;2.95;;;0.60;;
37777;SDS011;23615;51.506;7.678;2023-06-14T12:48:18;1.60;;;0.60;;
37777;SDS011;23615;51.506;7.678;2023-06-14T12:50:44;0.50;;;0.33;;
37777;SDS011;23615;51.506;7.678;2023-06-14T12:53:09;1.53;;;0.40;;
37777;SDS011;23615;51.506;7.678;2023-06-14T12:55:35;1.48;;;0.40;;
37777;SDS011;23615;51.506;7.678;2023-06-14T12:58:01;1.20;;;0.60;;
37777;SDS011;23615;51.506;7.678;2023-06-14T13:00:26;1.00;;;0.60;;
37777;SDS011;23615;51.506;7.678;2023-06-14T13:02:52;1.58;;;0.52;;
37777;SDS011;23615;51.506;7.678;2023-06-14T13:05:18;0.90;;;0.50;;
37777;SDS011;23615;51.506;7.678;2023-06-14T13:07:43;0.60;;;0.60;;
37777;SDS011;23615;51.506;7.678;2023-06-14T13:10:09;1.27;;;0.50;;
37777;SDS011;23615;51.506;7.678;2023-06-14T13:12:35;0.40;;;0.40;;
37777;SDS011;23615;51.506;7.678;2023-06-14T13:15:00;1.10;;;0.70;;
37777;SDS011;23615;51.506;7.678;2023-06-14T13:17:26;0.93;;;0.60;;
37777;SDS011;23615;51.506;7.678;2023-06-14T13:19:51;2.10;;;0.50;;
37777;SDS011;23615;51.506;7.678;2023-06-14T13:22:17;1.10;;;0.50;;
37777;SDS011;23615;51.506;7.678;2023-06-14T13:24:42;0.70;;;0.50;;
37777;SDS011;23615;51.506;7.678;2023-06-14T13:27:07;1.13;;;0.50;;
37777;SDS011;23615;51.506;7.678;2023-06-14T13:29:33;3.87;;;1.00;;
37777;SDS011;23615;51.506;7.678;2023-06-14T13:32:00;2.60;;;0.80;;
37777;SDS011;23615;51.506;7.678;2023-06-14T13:34:26;1.45;;;0.68;;
37777;SDS011;23615;51.506;7.678;2023-06-14T13:36:51;0.50;;;0.50;;
37777;SDS011;23615;51.506;7.678;2023-06-14T13:39:17;0.83;;;0.50;;
37777;SDS011;23615;51.506;7.678;2023-06-14T13:41:42;1.23;;;0.70;;
37777;SDS011;23615;51.506;7.678;2023-06-14T13:44:08;0.93;;;0.53;;
37777;SDS011;23615;51.506;7.678;2023-06-14T13:46:36;0.90;;;0.60;;
37777;SDS011;23615;51.506;7.678;2023-06-14T13:49:01;0.50;;;0.50;;
37777;SDS011;23615;51.506;7.678;2023-06-14T13:51:30;2.75;;;0.60;;
37777;SDS011;23615;51.506;7.678;2023-06-14T13:53:55;2.37;;;0.60;;
37777;SDS011;23615;51.506;7.678;2023-06-14T13:56:20;2.20;;;0.60;;
37777;SDS011;23615;51.506;7.678;2023-06-14T13:58:47;0.80;;;0.60;;
37777;SDS011;23615;51.506;7.678;2023-06-14T14:01:25;1.00;;;0.60;;
37777;SDS011;23615;51.506;7.678;2023-06-14T14:03:54;1.50;;;0.50;;
37777;SDS011;23615;51.506;7.678;2023-06-14T14:06:19;0.80;;;0.60;;
37777;SDS011;23615;51.506;7.678;2023-06-14T14:08:45;0.63;;;0.40;;
37777;SDS011;23615;51.506;7.678;2023-06-14T14:11:11;0.93;;;0.50;;
37777;SDS011;23615;51.506;7.678;2023-06-14T14:13:36;0.50;;;0.50;;
37777;SDS011;23615;51.506;7.678;2023-06-14T14:16:02;0.50;;;0.50;;
37777;SDS011;23615;51.506;7.678;2023-06-14T14:18:28;1.67;;;0.70;;
37777;SDS011;23615;51.506;7.678;2023-06-14T14:20:53;1.90;;;0.80;;
37777;SDS011;23615;51.506;7.678;2023-06-14T14:23:19;1.97;;;0.63;;
37777;SDS011;23615;51.506;7.678;2023-06-14T14:25:45;3.20;;;0.70;;
37777;SDS011;23615;51.506;7.678;2023-06-14T14:28:11;2.72;;;0.68;;
37777;SDS011;23615;51.506;7.678;2023-06-14T14:30:36;1.43;;;0.80;;
37777;SDS011;23615;51.506;7.678;2023-06-14T14:33:04;2.80;;;0.50;;
37777;SDS011;23615;51.506;7.678;2023-06-14T14:35:30;0.90;;;0.50;;
37777;SDS011;23615;51.506;7.678;2023-06-14T14:37:56;0.87;;;0.50;;
37777;SDS011;23615;51.506;7.678;2023-06-14T14:40:21;0.60;;;0.50;;
37777;SDS011;23615;51.506;7.678;2023-06-14T14:42:46;1.25;;;0.40;;
37777;SDS011;23615;51.506;7.678;2023-06-14T14:45:12;0.50;;;0.40;;
37777;SDS011;23615;51.506;7.678;2023-06-14T14:47:37;0.73;;;0.60;;
37777;SDS011;23615;51.506;7.678;2023-06-14T14:50:02;2.00;;;0.57;;
37777;SDS011;23615;51.506;7.678;2023-06-14T14:52:28;1.17;;;0.52;;
37777;SDS011;23615;51.506;7.678;2023-06-14T14:54:53;2.50;;;0.40;;
37777;SDS011;23615;51.506;7.678;2023-06-14T14:57:18;1.10;;;0.50;;
37777;SDS011;23615;51.506;7.678;2023-06-14T14:59:44;0.60;;;0.40;;
37777;SDS011;23615;51.506;7.678;2023-06-14T15:02:09;1.00;;;0.50;;
37777;SDS011;23615;51.506;7.678;2023-06-14T15:04:35;0.73;;;0.57;;
37777;SDS011;23615;51.506;7.678;2023-06-14T15:07:00;0.50;;;0.50;;
37777;SDS011;23615;51.506;7.678;2023-06-14T15:09:26;0.40;;;0.40;;